Time;durP1;ratioP1;P1;durP2;ratioP2;P2;SDS_P1;SDS_P2;PMS_P1;PMS_P2;Temp;Humidity;BMP_temperature;BMP_pressure;BME280_temperature;BME280_humidity;BME280_pressure;Samples;Min_cycle;Max_cycle;Signal;HPM_P1;HPM_P2
2023/12/28 00:02:03;;;;;;;1.58;0.77;;;;;;;8.82;80.21;100016.56;5218595;28;20483;-78
2023/12/28 00:04:34;;;;;;;1.80;0.90;;;;;;;8.76;79.86;100014.19;5218076;28;20108;-76
2023/12/28 00:07:04;;;;;;;1.42;0.80;;;;;;;8.63;79.38;99999.94;5218349;28;20375;-77
2023/12/28 00:09:35;;;;;;;2.88;0.93;;;;;;;8.68;79.01;99992.78;5216726;28;20032;-77
2023/12/28 00:12:05;;;;;;;2.65;1.00;;;;;;;8.96;78.51;99980.44;5218424;28;20433;-78
2023/12/28 00:14:36;;;;;;;3.20;1.17;;;;;;;8.88;78.84;99955.56;5217275;28;20490;-77
2023/12/28 00:17:06;;;;;;;2.00;1.00;;;;;;;8.86;78.53;99941.75;5217752;28;20507;-78
2023/12/28 00:19:36;;;;;;;2.47;0.90;;;;;;;8.87;77.92;99941.69;5216249;28;20035;-78
2023/12/28 00:22:06;;;;;;;2.13;0.88;;;;;;;8.82;78.45;99958.41;5218762;28;20017;-78
2023/12/28 00:24:37;;;;;;;1.45;0.82;;;;;;;8.92;76.80;99978.81;5217961;28;20074;-78
2023/12/28 00:27:07;;;;;;;2.13;0.80;;;;;;;8.97;77.03;99979.53;5218419;28;20049;-78
2023/12/28 00:29:38;;;;;;;3.42;1.00;;;;;;;9.01;76.68;99975.88;5217880;28;20572;-76
2023/12/28 00:32:09;;;;;;;2.45;0.80;;;;;;;9.05;76.72;99985.28;5217798;28;20202;-78
2023/12/28 00:34:39;;;;;;;3.22;0.90;;;;;;;9.00;77.54;99992.44;5216326;28;20021;-77
2023/12/28 00:37:10;;;;;;;3.83;1.00;;;;;;;9.05;76.88;99995.69;5217329;28;20033;-77
2023/12/28 00:39:40;;;;;;;2.50;0.80;;;;;;;9.12;76.53;99988.50;5216764;28;20059;-77
2023/12/28 00:42:11;;;;;;;2.03;0.70;;;;;;;9.04;76.83;99980.97;5218318;28;20028;-78
2023/12/28 00:44:41;;;;;;;3.55;0.80;;;;;;;8.96;77.11;99997.81;5216704;28;20029;-77
2023/12/28 00:47:12;;;;;;;3.80;0.98;;;;;;;8.94;77.49;100000.50;5218325;28;20029;-78
2023/12/28 00:49:42;;;;;;;2.53;0.82;;;;;;;8.93;77.78;99998.75;5215873;28;20423;-78
2023/12/28 00:52:13;;;;;;;2.72;1.25;;;;;;;8.98;77.65;100004.66;5215482;28;20578;-77
2023/12/28 00:54:43;;;;;;;3.75;1.55;;;;;;;9.08;77.06;100011.22;5215978;28;20040;-77
2023/12/28 00:57:13;;;;;;;2.80;1.10;;;;;;;9.09;76.64;100020.72;5218203;28;20025;-78
2023/12/28 00:59:45;;;;;;;1.88;0.82;;;;;;;9.12;76.77;100025.84;5216248;28;20387;-78
2023/12/28 01:02:15;;;;;;;2.08;0.80;;;;;;;9.16;76.55;100030.03;5215212;28;20033;-77
2023/12/28 01:04:45;;;;;;;5.00;1.10;;;;;;;9.30;75.73;100025.13;5201401;28;20044;-77
2023/12/28 01:07:15;;;;;;;3.13;1.20;;;;;;;9.34;75.83;100027.53;5208458;28;20127;-78
2023/12/28 01:09:46;;;;;;;2.33;0.80;;;;;;;9.37;75.85;100037.88;5214786;28;20064;-77
2023/12/28 01:12:17;;;;;;;2.45;0.80;;;;;;;9.44;75.62;100051.50;5228965;28;20059;-77
2023/12/28 01:14:47;;;;;;;3.50;1.08;;;;;;;9.53;75.22;100046.78;5212481;28;20045;-78
2023/12/28 01:17:19;;;;;;;2.65;1.00;;;;;;;9.52;75.59;100062.50;5210461;28;20032;-78
2023/12/28 01:19:49;;;;;;;2.75;0.85;;;;;;;9.51;75.87;100059.03;5211060;28;20029;-79
2023/12/28 01:22:20;;;;;;;3.22;1.27;;;;;;;9.44;75.70;100067.13;5215865;28;20268;-78
2023/12/28 01:24:50;;;;;;;3.22;1.08;;;;;;;9.50;75.80;100069.53;5215029;28;20108;-78
2023/12/28 01:27:20;;;;;;;5.45;1.30;;;;;;;9.57;75.73;100069.22;5213595;28;20099;-78
2023/12/28 01:29:51;;;;;;;5.90;1.60;;;;;;;9.53;75.51;100066.78;5219111;28;20436;-78
2023/12/28 01:32:21;;;;;;;3.22;1.25;;;;;;;9.52;76.68;100078.13;5217491;28;20486;-78
2023/12/28 01:34:51;;;;;;;2.28;1.10;;;;;;;9.46;76.79;100067.97;5216940;28;20130;-78
2023/12/28 01:37:23;;;;;;;4.95;1.30;;;;;;;9.54;76.20;100066.75;5219804;28;20033;-78
2023/12/28 01:39:53;;;;;;;2.58;1.35;;;;;;;9.51;76.99;100072.06;5219673;28;20103;-78
2023/12/28 01:42:23;;;;;;;2.20;1.10;;;;;;;9.55;76.25;100072.78;5220247;28;20175;-78
2023/12/28 01:44:53;;;;;;;2.85;1.30;;;;;;;9.64;76.87;100078.50;5231675;22;20063;-75
2023/12/28 01:47:28;;;;;;;2.03;0.82;;;;;;;9.49;77.35;100080.88;5214444;28;20025;-75
2023/12/28 01:50:00;;;;;;;3.22;1.10;;;;;;;9.50;78.02;100074.75;5210299;28;21296;-76
2023/12/28 01:52:30;;;;;;;3.28;1.20;;;;;;;9.56;77.45;100083.19;5210568;28;20147;-74
2023/12/28 01:55:01;;;;;;;2.10;1.08;;;;;;;9.54;77.84;100086.75;5207695;28;20025;-75
2023/12/28 01:57:31;;;;;;;4.35;1.50;;;;;;;9.49;78.07;100093.91;5213050;28;20169;-75
2023/12/28 02:00:03;;;;;;;4.10;1.27;;;;;;;9.48;77.98;100097.44;5204435;28;20033;-75
2023/12/28 02:02:34;;;;;;;4.65;1.48;;;;;;;9.43;78.97;100099.34;5204884;28;20028;-74
2023/12/28 02:05:05;;;;;;;3.78;1.52;;;;;;;9.47;79.05;100100.94;5205125;28;20032;-75
2023/12/28 02:07:36;;;;;;;5.07;1.50;;;;;;;9.55;79.83;100076.28;5209852;28;20128;-74
2023/12/28 02:10:07;;;;;;;3.75;1.40;;;;;;;9.57;79.71;100084.00;5210250;28;20208;-75
2023/12/28 02:12:38;;;;;;;4.35;1.73;;;;;;;9.55;80.67;100097.13;5209524;28;20048;-75
2023/12/28 02:15:09;;;;;;;4.47;1.40;;;;;;;9.56;81.48;100083.19;5209331;28;20130;-75
2023/12/28 02:17:58;;;;;;;5.07;1.55;;;;;;;9.54;82.52;100081.53;5211267;28;20504;-75
2023/12/28 02:20:34;;;;;;;6.53;1.60;;;;;;;9.57;82.62;100091.84;5203547;28;20375;-75
2023/12/28 02:23:05;;;;;;;4.03;1.67;;;;;;;9.52;83.24;100083.34;5206549;28;20407;-75
2023/12/28 02:25:36;;;;;;;3.83;1.70;;;;;;;9.47;83.39;100086.13;5208628;28;20104;-75
2023/12/28 02:28:06;;;;;;;6.05;1.98;;;;;;;9.46;83.53;100089.66;5209976;28;20112;-75
2023/12/28 02:30:37;;;;;;;6.68;2.50;;;;;;;9.46;83.85;100088.81;5210457;28;20079;-75
2023/12/28 02:33:35;;;;;;;8.15;2.45;;;;;;;9.41;84.48;100096.81;5208698;28;20048;-75
2023/12/28 02:36:10;;;;;;;6.30;2.40;;;;;;;9.36;85.15;100098.75;5206139;28;20060;-75
2023/12/28 02:38:42;;;;;;;5.30;2.17;;;;;;;9.55;84.74;100098.88;5212427;28;20032;-75
2023/12/28 02:41:12;;;;;;;7.93;1.95;;;;;;;9.52;84.82;100088.56;5210715;28;20026;-75
2023/12/28 02:43:43;;;;;;;6.82;1.80;;;;;;;9.47;85.02;100098.34;5204821;28;20130;-75
2023/12/28 02:46:13;;;;;;;3.72;1.58;;;;;;;9.53;85.44;100088.53;5206907;28;20060;-75
2023/12/28 02:48:43;;;;;;;4.03;1.60;;;;;;;9.44;85.49;100090.63;5208077;28;20037;-75
2023/12/28 02:51:16;;;;;;;5.35;1.33;;;;;;;9.50;85.63;100093.00;5209880;28;20545;-75
2023/12/28 02:53:46;;;;;;;3.22;1.20;;;;;;;9.52;85.71;100101.63;5201250;28;20037;-74
2023/12/28 02:56:16;;;;;;;3.97;1.70;;;;;;;9.43;86.53;100094.13;5208940;28;20056;-75
2023/12/28 02:58:47;;;;;;;6.70;2.17;;;;;;;9.47;86.84;100099.19;5209952;28;20108;-74
2023/12/28 03:01:17;;;;;;;5.20;2.00;;;;;;;9.45;87.23;100102.78;5210405;28;20078;-75
2023/12/28 03:03:47;;;;;;;5.63;2.20;;;;;;;9.42;87.72;100103.72;5201292;28;20036;-73
2023/12/28 03:06:17;;;;;;;4.85;2.58;;;;;;;9.51;87.65;100107.75;5210595;28;20045;-75
2023/12/28 03:08:48;;;;;;;4.07;1.90;;;;;;;9.41;88.73;100112.47;5203519;28;20052;-74
2023/12/28 03:11:20;;;;;;;6.10;1.92;;;;;;;9.49;88.20;100105.19;5211073;28;20051;-75
2023/12/28 03:13:50;;;;;;;4.25;1.65;;;;;;;9.49;89.15;100102.56;5208646;28;20098;-74
2023/12/28 03:16:21;;;;;;;3.55;1.63;;;;;;;9.53;89.30;100087.66;5207893;28;20024;-75
2023/12/28 03:18:51;;;;;;;4.55;1.50;;;;;;;9.41;90.03;100094.22;5205983;28;20052;-75
2023/12/28 03:21:22;;;;;;;5.28;1.80;;;;;;;9.34;90.53;100078.84;5211954;28;20446;-76
2023/12/28 03:23:52;;;;;;;6.97;1.50;;;;;;;9.38;91.90;100093.47;5207770;28;20029;-75
2023/12/28 03:26:22;;;;;;;4.05;1.40;;;;;;;9.35;91.74;100089.22;5210537;28;20031;-75
2023/12/28 03:28:53;;;;;;;4.20;1.50;;;;;;;9.35;91.90;100104.03;5204083;28;20037;-75
2023/12/28 03:31:23;;;;;;;3.95;1.42;;;;;;;9.38;93.34;100114.31;5208921;28;20060;-75
2023/12/28 03:33:53;;;;;;;3.85;1.55;;;;;;;9.39;93.63;100129.06;5206412;28;20030;-74
2023/12/28 03:36:23;;;;;;;3.85;1.50;;;;;;;9.39;93.84;100129.06;5209411;28;20051;-75
2023/12/28 03:38:54;;;;;;;4.13;1.70;;;;;;;9.45;93.93;100128.84;5203243;28;20033;-75
2023/12/28 03:41:24;;;;;;;4.68;1.77;;;;;;;9.42;94.78;100121.13;5207967;28;20028;-75
2023/12/28 03:43:55;;;;;;;4.53;1.73;;;;;;;9.37;95.30;100115.25;5205547;28;20123;-75
2023/12/28 03:46:26;;;;;;;6.30;1.80;;;;;;;9.34;95.84;100112.75;5210485;28;20036;-75
2023/12/28 03:48:56;;;;;;;8.25;2.00;;;;;;;9.39;95.70;100119.50;5206504;28;20060;-75
2023/12/28 03:51:27;;;;;;;6.70;2.05;;;;;;;9.32;96.75;100107.59;5209688;28;20021;-75
2023/12/28 03:53:57;;;;;;;4.45;2.08;;;;;;;9.30;96.58;100119.00;5200811;28;20029;-75
2023/12/28 03:56:28;;;;;;;6.00;2.05;;;;;;;9.28;96.84;100115.59;5208513;28;20074;-75
2023/12/28 03:58:58;;;;;;;8.80;2.40;;;;;;;9.16;97.73;100116.88;5203664;28;20021;-75
2023/12/28 04:01:28;;;;;;;9.50;2.35;;;;;;;9.16;97.60;100118.66;5210857;28;20021;-75
2023/12/28 04:03:59;;;;;;;6.00;1.92;;;;;;;9.16;97.81;100116.06;5201532;28;20021;-75
2023/12/28 04:06:29;;;;;;;9.35;2.22;;;;;;;9.11;97.53;100112.78;5211808;28;20108;-75
2023/12/28 04:08:59;;;;;;;5.00;1.58;;;;;;;9.12;98.58;100114.47;5204659;28;20406;-73
2023/12/28 04:11:30;;;;;;;2.90;1.20;;;;;;;8.99;98.53;100128.00;5206940;28;20025;-75
2023/12/28 04:14:00;;;;;;;2.55;1.30;;;;;;;9.04;98.93;100126.91;5205216;28;20048;-75
2023/12/28 04:16:30;;;;;;;3.63;1.52;;;;;;;8.85;99.15;100132.84;5212041;28;20025;-75
2023/12/28 04:19:02;;;;;;;3.60;1.40;;;;;;;8.92;99.12;100136.94;5202398;28;20087;-75
2023/12/28 04:21:32;;;;;;;4.32;1.38;;;;;;;8.87;99.61;100142.31;5202767;28;20110;-76
2023/12/28 04:24:03;;;;;;;3.60;1.27;;;;;;;8.81;99.78;100147.75;5203471;28;20501;-75
2023/12/28 04:26:33;;;;;;;3.67;1.40;;;;;;;8.88;98.90;100141.41;5208661;28;20028;-75
2023/12/28 04:29:04;;;;;;;4.18;1.60;;;;;;;8.82;98.95;100152.06;5204788;28;20041;-75
2023/12/28 04:31:40;;;;;;;4.88;1.60;;;;;;;8.76;99.31;100147.03;5209861;28;20072;-74
2023/12/28 04:34:10;;;;;;;4.93;1.50;;;;;;;8.78;99.37;100142.66;5205672;28;20071;-75
2023/12/28 04:36:42;;;;;;;4.38;1.40;;;;;;;8.75;99.06;100144.50;5202446;28;20052;-75
2023/12/28 04:39:13;;;;;;;3.67;1.60;;;;;;;8.81;98.58;100147.75;5202745;28;20163;-75
2023/12/28 04:41:43;;;;;;;4.53;1.45;;;;;;;8.81;98.42;100145.16;5206404;28;20123;-75
2023/12/28 04:44:13;;;;;;;4.70;1.77;;;;;;;8.84;98.34;100149.38;5201307;28;20033;-75
2023/12/28 04:46:45;;;;;;;4.10;1.65;;;;;;;8.69;98.36;100158.59;5199305;28;20128;-75
2023/12/28 04:49:15;;;;;;;3.00;1.35;;;;;;;8.70;98.96;100147.25;5201585;28;20089;-75
2023/12/28 04:51:45;;;;;;;3.80;1.50;;;;;;;8.69;98.76;100166.41;5199112;28;20037;-75
2023/12/28 04:54:16;;;;;;;6.53;1.42;;;;;;;8.68;98.85;100163.84;5201204;28;20487;-74
2023/12/28 04:56:46;;;;;;;4.50;1.80;;;;;;;8.66;98.68;100160.44;5199562;28;20102;-75
2023/12/28 04:59:17;;;;;;;4.55;1.52;;;;;;;8.72;98.75;100166.28;5200060;28;20068;-75
2023/12/28 05:01:47;;;;;;;4.13;1.45;;;;;;;8.59;99.25;100158.97;5200417;28;20037;-76
2023/12/28 05:04:17;;;;;;;4.60;1.55;;;;;;;8.68;98.64;100163.84;5202109;28;20026;-75
2023/12/28 05:06:48;;;;;;;4.05;1.60;;;;;;;8.61;98.50;100152.81;5201160;28;20048;-75
2023/12/28 05:09:18;;;;;;;8.98;2.13;;;;;;;8.55;99.46;100150.41;5197940;28;20041;-75
2023/12/28 05:11:48;;;;;;;4.78;1.65;;;;;;;8.57;99.38;100156.41;5206781;28;20510;-75
2023/12/28 05:14:19;;;;;;;5.70;1.92;;;;;;;8.54;100.00;100150.47;5201570;28;20029;-75
2023/12/28 05:16:49;;;;;;;5.15;1.67;;;;;;;8.58;99.21;100163.31;5205990;28;20033;-75
2023/12/28 05:19:19;;;;;;;5.47;1.73;;;;;;;8.64;99.41;100170.94;5202825;28;20025;-75
2023/12/28 05:21:50;;;;;;;3.47;1.70;;;;;;;8.52;99.62;100173.94;5204637;28;20037;-75
2023/12/28 05:24:20;;;;;;;4.75;1.63;;;;;;;8.47;100.00;100170.66;5201140;28;20063;-75
2023/12/28 05:26:50;;;;;;;3.75;1.52;;;;;;;8.52;99.80;100173.94;5203193;28;20029;-75
2023/12/28 05:29:21;;;;;;;5.00;1.70;;;;;;;8.55;100.00;100173.84;5203184;28;20056;-75
2023/12/28 05:31:51;;;;;;;3.28;1.70;;;;;;;8.59;100.00;100165.00;5202962;28;20027;-75
2023/12/28 05:34:21;;;;;;;4.82;1.65;;;;;;;8.61;99.92;100178.84;5204219;28;20500;-76
2023/12/28 05:36:52;;;;;;;3.28;1.15;;;;;;;8.65;99.70;100170.03;5202785;28;20025;-75
2023/12/28 05:39:22;;;;;;;4.18;1.70;;;;;;;8.67;100.00;100175.16;5206032;28;20032;-75
2023/12/28 05:41:52;;;;;;;5.30;1.52;;;;;;;8.65;100.00;100170.03;5210335;28;20029;-75
2023/12/28 05:44:23;;;;;;;2.88;1.33;;;;;;;8.69;99.64;100176.00;5205733;28;20087;-75
2023/12/28 05:46:53;;;;;;;4.60;1.50;;;;;;;8.69;99.87;100179.44;5201391;28;20033;-76
2023/12/28 05:49:25;;;;;;;5.25;1.52;;;;;;;8.67;100.00;100177.78;5205285;28;20232;-75
2023/12/28 05:51:55;;;;;;;3.50;1.27;;;;;;;8.58;100.00;100176.31;5200993;28;20621;-75
2023/12/28 05:54:26;;;;;;;4.70;1.60;;;;;;;8.56;100.00;100191.16;5202244;28;20022;-75
2023/12/28 05:56:56;;;;;;;5.38;1.58;;;;;;;8.69;100.00;100182.03;5201718;28;20025;-75
2023/12/28 05:59:27;;;;;;;5.80;1.27;;;;;;;8.71;100.00;100179.41;5202965;28;20079;-75
2023/12/28 06:01:57;;;;;;;4.15;1.50;;;;;;;8.70;100.00;100183.72;5204970;28;20522;-75
2023/12/28 06:04:27;;;;;;;5.57;1.70;;;;;;;8.67;100.00;100189.06;5207940;28;20119;-75
2023/12/28 06:06:57;;;;;;;6.57;1.92;;;;;;;8.66;99.74;100186.50;5202991;28;20499;-75
2023/12/28 06:09:28;;;;;;;4.22;1.70;;;;;;;8.60;100.00;100177.16;5203491;28;20034;-75
2023/12/28 06:11:58;;;;;;;5.68;1.70;;;;;;;8.63;100.00;100177.03;5202030;28;20561;-75
2023/12/28 06:14:29;;;;;;;4.53;1.70;;;;;;;8.67;100.00;100181.25;5202937;28;20127;-75
2023/12/28 06:17:00;;;;;;;9.35;1.70;;;;;;;8.67;100.00;100183.84;5206246;28;20348;-75
2023/12/28 06:19:30;;;;;;;4.97;1.42;;;;;;;8.72;100.00;100186.31;5206423;28;20111;-75
2023/12/28 06:22:01;;;;;;;4.50;1.55;;;;;;;8.63;100.00;100199.63;5203747;28;20025;-75
2023/12/28 06:24:31;;;;;;;4.35;2.00;;;;;;;8.72;100.00;100187.13;5203451;28;20017;-75
2023/12/28 06:27:01;;;;;;;5.10;1.58;;;;;;;8.70;100.00;100186.34;5204458;28;20452;-75
2023/12/28 06:29:32;;;;;;;4.55;1.63;;;;;;;8.79;100.00;100190.38;5201256;28;20064;-75
2023/12/28 06:32:02;;;;;;;4.20;1.65;;;;;;;8.77;100.00;100190.47;5206558;28;20029;-75
2023/12/28 06:34:33;;;;;;;3.70;1.50;;;;;;;8.74;100.00;100180.13;5202884;28;20034;-75
2023/12/28 06:37:03;;;;;;;3.80;1.60;;;;;;;8.78;100.00;100183.47;5203902;28;20312;-75
2023/12/28 06:39:34;;;;;;;4.55;1.98;;;;;;;8.84;99.81;100193.66;5203926;28;20017;-75
2023/12/28 06:42:04;;;;;;;3.45;1.20;;;;;;;8.77;100.00;100184.38;5203985;28;20036;-75
2023/12/28 06:44:34;;;;;;;6.55;1.13;;;;;;;8.83;100.00;100192.84;5208383;28;20045;-75
2023/12/28 06:47:05;;;;;;;3.72;1.50;;;;;;;8.77;99.95;100185.25;5204338;28;20509;-75
2023/12/28 06:49:35;;;;;;;4.05;1.73;;;;;;;8.86;99.94;100184.91;5206937;28;20305;-75
2023/12/28 06:52:05;;;;;;;4.88;1.50;;;;;;;8.85;99.83;100183.22;5202694;28;20037;-75
2023/12/28 06:54:36;;;;;;;3.55;1.42;;;;;;;8.89;99.45;100190.00;5206904;28;20363;-75
2023/12/28 06:57:06;;;;;;;3.33;1.50;;;;;;;8.87;99.18;100198.81;5205871;28;20025;-75
2023/12/28 06:59:36;;;;;;;2.50;1.20;;;;;;;8.83;99.50;100203.25;5201548;28;20432;-75
2023/12/28 07:02:07;;;;;;;3.28;1.30;;;;;;;8.89;99.55;100194.38;5204643;28;20037;-75
2023/12/28 07:04:38;;;;;;;3.47;1.48;;;;;;;8.92;98.89;100195.09;5205564;28;20596;-75
2023/12/28 07:07:08;;;;;;;3.80;1.30;;;;;;;8.97;98.37;100208.84;5203439;28;20064;-73
2023/12/28 07:09:38;;;;;;;5.35;1.30;;;;;;;9.03;98.34;100218.22;5202757;28;20033;-75
2023/12/28 07:12:08;;;;;;;2.85;1.30;;;;;;;9.00;97.41;100213.94;5205474;28;20026;-74
2023/12/28 07:14:39;;;;;;;2.53;1.50;;;;;;;9.05;97.11;100221.63;5201706;28;20021;-75
2023/12/28 07:17:11;;;;;;;3.65;1.17;;;;;;;9.04;96.80;100220.75;5204325;28;20487;-73
2023/12/28 07:19:42;;;;;;;4.13;1.52;;;;;;;9.06;96.22;100231.97;5204511;28;20072;-75
2023/12/28 07:22:12;;;;;;;4.22;1.67;;;;;;;9.12;96.25;100231.78;5200412;28;20064;-76
2023/12/28 07:24:42;;;;;;;2.80;1.10;;;;;;;9.15;96.02;100231.66;5199886;28;20055;-75
2023/12/28 07:27:13;;;;;;;2.72;1.27;;;;;;;9.02;96.72;100227.78;5200155;28;20396;-76
2023/12/28 07:29:43;;;;;;;3.78;1.13;;;;;;;9.10;96.57;100232.72;5204948;28;20060;-75
2023/12/28 07:32:14;;;;;;;3.45;1.30;;;;;;;9.05;96.54;100237.25;5203427;28;20083;-75
2023/12/28 07:34:44;;;;;;;3.15;1.10;;;;;;;9.07;96.65;100232.84;5196892;28;20017;-75
2023/12/28 07:37:14;;;;;;;3.10;1.30;;;;;;;9.04;96.69;100246.81;5196782;28;20104;-76
2023/12/28 07:39:44;;;;;;;2.85;1.25;;;;;;;9.02;96.09;100259.06;5195957;28;20040;-75
2023/12/28 07:42:15;;;;;;;2.97;1.20;;;;;;;9.00;96.78;100252.19;5198526;28;20454;-74
2023/12/28 07:44:45;;;;;;;3.38;1.30;;;;;;;9.06;96.09;100252.81;5206690;28;20128;-74
2023/12/28 07:47:16;;;;;;;2.72;1.38;;;;;;;9.10;96.42;100257.00;5204573;28;20026;-75
2023/12/28 07:49:46;;;;;;;2.97;1.48;;;;;;;9.05;96.27;100247.69;5202961;28;20076;-75
2023/12/28 07:52:17;;;;;;;2.75;1.20;;;;;;;9.02;96.67;100252.97;5203876;28;20033;-75
2023/12/28 07:54:47;;;;;;;2.08;1.10;;;;;;;9.02;96.60;100255.56;5203593;28;20025;-75
2023/12/28 07:57:18;;;;;;;3.75;1.40;;;;;;;9.03;96.58;100252.94;5207900;28;20037;-75
2023/12/28 07:59:48;;;;;;;2.22;1.25;;;;;;;8.98;97.07;100257.47;5203528;28;20454;-75
2023/12/28 08:02:18;;;;;;;3.00;1.20;;;;;;;9.07;96.64;100251.91;5206580;28;20040;-74
2023/12/28 08:04:49;;;;;;;2.08;0.88;;;;;;;9.02;96.39;100259.06;5203779;28;20025;-75
2023/12/28 08:07:20;;;;;;;2.03;1.15;;;;;;;9.05;96.48;100261.53;5204010;28;20403;-75
2023/12/28 08:09:50;;;;;;;3.47;1.45;;;;;;;8.99;96.60;100261.78;5204281;28;20273;-75
2023/12/28 08:12:21;;;;;;;2.45;1.27;;;;;;;8.96;96.58;100259.28;5205107;28;20418;-75
2023/12/28 08:14:51;;;;;;;2.72;1.13;;;;;;;8.99;97.20;100253.94;5203665;28;20031;-75
2023/12/28 08:17:22;;;;;;;2.78;1.20;;;;;;;9.06;96.07;100258.03;5205749;28;20021;-75
2023/12/28 08:19:52;;;;;;;5.18;1.40;;;;;;;8.98;96.63;100261.81;5202515;28;20624;-75
2023/12/28 08:22:22;;;;;;;4.15;1.30;;;;;;;8.95;97.53;100261.91;5205279;28;20091;-75
2023/12/28 08:24:52;;;;;;;2.70;1.00;;;;;;;9.06;96.97;100267.63;5202629;28;20597;-75
2023/12/28 08:27:23;;;;;;;6.63;1.30;;;;;;;9.12;96.91;100265.66;5205353;28;20037;-75
2023/12/28 08:29:53;;;;;;;2.78;1.02;;;;;;;9.18;96.21;100270.66;5202698;28;20528;-75
2023/12/28 08:32:24;;;;;;;2.75;1.27;;;;;;;9.07;96.59;100277.97;5208860;28;20075;-76
2023/12/28 08:34:54;;;;;;;6.10;1.15;;;;;;;9.08;96.26;100264.03;5204833;28;20103;-75
2023/12/28 08:37:24;;;;;;;3.42;1.50;;;;;;;9.06;96.27;100268.47;5204456;28;20442;-76
2023/12/28 08:39:55;;;;;;;2.92;1.38;;;;;;;9.13;96.94;100268.19;5204076;28;20261;-75
2023/12/28 08:42:25;;;;;;;2.10;1.20;;;;;;;9.15;96.50;100266.38;5205843;28;20029;-76
2023/12/28 08:44:55;;;;;;;3.38;1.20;;;;;;;9.06;96.54;100265.03;5206462;28;20053;-75
2023/12/28 08:47:26;;;;;;;2.22;1.00;;;;;;;9.13;96.98;100260.38;5206024;28;20064;-75
2023/12/28 08:49:56;;;;;;;34.97;17.75;;;;;;;9.19;96.60;100261.94;5203282;28;20530;-75
2023/12/28 08:52:26;;;;;;;3.22;1.38;;;;;;;9.15;96.95;100270.75;5204474;28;20039;-75
2023/12/28 08:54:57;;;;;;;2.70;1.27;;;;;;;9.33;96.20;100264.91;5205308;28;20115;-75
2023/12/28 08:57:28;;;;;;;2.40;1.23;;;;;;;9.39;96.03;100280.31;5206601;28;20024;-75
2023/12/28 09:00:00;;;;;;;3.15;1.02;;;;;;;9.47;94.62;100266.09;5204010;28;20392;-75
2023/12/28 09:02:30;;;;;;;4.25;1.42;;;;;;;9.44;94.88;100278.41;5201284;28;20115;-75
2023/12/28 09:05:00;;;;;;;3.13;1.10;;;;;;;9.55;94.59;100269.31;5199524;28;20033;-76
2023/12/28 09:07:31;;;;;;;2.17;1.10;;;;;;;9.61;94.05;100276.03;5202172;28;20307;-75
2023/12/28 09:10:02;;;;;;;4.53;1.40;;;;;;;9.70;94.03;100276.56;5200960;28;20025;-76
2023/12/28 09:12:32;;;;;;;2.83;1.40;;;;;;;9.79;93.71;100281.44;5200700;28;20036;-75
2023/12/28 09:15:05;;;;;;;5.00;1.77;;;;;;;9.98;93.31;100276.41;5199708;28;20491;-75
2023/12/28 09:17:35;;;;;;;3.22;1.45;;;;;;;10.05;92.50;100285.72;5195189;28;20098;-74
2023/12/28 09:20:06;;;;;;;4.88;1.15;;;;;;;10.04;91.95;100281.41;5201312;28;20120;-75
2023/12/28 09:22:36;;;;;;;3.58;1.40;;;;;;;10.04;91.89;100273.56;5200566;28;20077;-75
2023/12/28 09:25:07;;;;;;;3.53;1.40;;;;;;;10.12;91.94;100269.75;5200869;28;20114;-75
2023/12/28 09:27:38;;;;;;;2.88;1.20;;;;;;;10.21;91.87;100261.59;5200806;28;20038;-75
2023/12/28 09:30:08;;;;;;;3.03;1.45;;;;;;;10.29;91.21;100271.69;5199189;28;20029;-75
2023/12/28 09:32:39;;;;;;;3.40;1.20;;;;;;;10.34;90.66;100269.78;5205113;28;20063;-75
2023/12/28 09:35:09;;;;;;;2.42;1.17;;;;;;;10.49;90.10;100263.94;5206714;28;20017;-76
2023/12/28 09:37:39;;;;;;;4.43;1.60;;;;;;;10.60;89.68;100266.97;5204887;28;20040;-76
2023/12/28 09:40:10;;;;;;;3.55;1.33;;;;;;;10.71;89.68;100270.00;5206653;28;20272;-76
2023/12/28 09:42:51;;;;;;;5.88;1.50;;;;;;;10.85;88.84;100270.28;5206463;28;20067;-76
2023/12/28 09:45:21;;;;;;;3.38;1.38;;;;;;;11.01;88.03;100273.97;5204689;28;20036;-74
2023/12/28 09:47:52;;;;;;;4.72;1.40;;;;;;;11.07;87.17;100285.84;5198935;28;20034;-75
2023/12/28 09:50:26;;;;;;;5.40;1.35;;;;;;;11.10;86.83;100272.63;5212153;28;20284;-76
2023/12/28 09:52:56;;;;;;;3.72;1.65;;;;;;;11.14;87.03;100279.44;5206775;28;20372;-75
2023/12/28 09:55:27;;;;;;;4.40;1.48;;;;;;;11.16;86.51;100284.63;5209123;28;20029;-76
2023/12/28 09:58:00;;;;;;;3.85;1.35;;;;;;;11.22;86.54;100284.34;5206118;28;20453;-75
2023/12/28 10:00:30;;;;;;;4.78;1.17;;;;;;;11.22;86.38;100279.97;5202687;28;20387;-75
2023/12/28 10:03:02;;;;;;;4.32;1.48;;;;;;;11.39;85.50;100280.09;5207408;28;20033;-75
2023/12/28 10:05:33;;;;;;;4.35;1.50;;;;;;;11.40;84.96;100273.06;5211270;28;20029;-75
2023/12/28 10:08:05;;;;;;;3.50;1.15;;;;;;;11.55;85.13;100273.28;5211956;28;20087;-75
2023/12/28 10:10:35;;;;;;;2.92;1.50;;;;;;;11.30;85.19;100262.16;5209728;28;20053;-75
2023/12/28 10:13:09;;;;;;;5.35;1.65;;;;;;;11.45;84.94;100261.50;5199400;28;20434;-75
2023/12/28 10:15:39;;;;;;;8.68;2.05;;;;;;;11.27;84.77;100269.31;5202124;28;20053;-74
2023/12/28 10:18:09;;;;;;;5.35;1.60;;;;;;;11.43;85.39;100268.56;5196190;28;20482;-75
2023/12/28 10:20:40;;;;;;;7.95;1.92;;;;;;;11.58;84.53;100262.69;5194851;28;20064;-75
2023/12/28 10:23:11;;;;;;;5.68;1.52;;;;;;;11.54;85.20;100276.81;5193256;28;20503;-75
2023/12/28 10:25:42;;;;;;;3.08;1.55;;;;;;;11.63;84.59;100265.13;5194953;28;20032;-73
2023/12/28 10:28:12;;;;;;;4.43;1.58;;;;;;;11.76;84.89;100261.88;5197076;28;20479;-75
2023/12/28 10:30:42;;;;;;;5.05;1.55;;;;;;;11.87;84.84;100264.88;5195580;28;20376;-73
2023/12/28 10:33:14;;;;;;;6.97;1.42;;;;;;;12.06;83.97;100257.84;5195940;28;20037;-75
2023/12/28 10:35:45;;;;;;;4.53;1.85;;;;;;;12.07;83.01;100251.69;5195780;28;20399;-75
2023/12/28 10:38:17;;;;;;;5.55;2.17;;;;;;;12.19;82.51;100245.88;5196166;28;20029;-76
2023/12/28 10:40:48;;;;;;;8.98;1.98;;;;;;;12.30;82.78;100235.72;5197783;28;20079;-74
2023/12/28 10:43:22;;;;;;;4.75;1.98;;;;;;;12.15;81.79;100239.06;5194242;28;20036;-75
2023/12/28 10:45:55;;;;;;;8.68;2.58;;;;;;;12.04;82.20;100232.63;5202456;28;20561;-75
2023/12/28 10:48:34;;;;;;;6.85;2.03;;;;;;;11.97;83.18;100221.59;5203475;28;20086;-75
2023/12/28 10:51:06;;;;;;;4.53;1.88;;;;;;;11.91;83.29;100213.19;5198796;28;20048;-77
2023/12/28 10:53:49;;;;;;;6.43;1.52;;;;;;;11.65;82.85;100221.41;5208886;28;20486;-75
2023/12/28 10:56:31;;;;;;;3.92;1.20;;;;;;;11.72;83.54;100222.81;5207618;28;20114;-76
2023/12/28 10:59:08;;;;;;;4.35;1.40;;;;;;;11.71;83.25;100214.13;5198787;28;20029;-75
2023/12/28 11:01:41;;;;;;;6.55;1.73;;;;;;;11.67;83.78;100215.19;5202104;28;20669;-75
2023/12/28 11:04:37;;;;;;;4.18;1.63;;;;;;;11.62;83.28;100218.94;5211579;28;20104;-75
2023/12/28 11:07:09;;;;;;;3.17;1.27;;;;;;;11.57;84.60;100213.88;5205410;28;21012;-75
2023/12/28 11:09:42;;;;;;;3.45;1.20;;;;;;;11.51;84.81;100223.75;5203508;28;20029;-74
2023/12/28 11:12:13;;;;;;;8.38;1.48;;;;;;;11.51;84.96;100229.84;5206891;28;20132;-75
2023/12/28 11:14:44;;;;;;;4.05;1.30;;;;;;;11.49;84.42;100231.69;5206449;28;20135;-74
2023/12/28 11:17:16;;;;;;;6.40;1.52;;;;;;;11.58;84.77;100231.28;5202209;28;20181;-75
2023/12/28 11:19:48;;;;;;;4.15;1.75;;;;;;;11.71;85.03;100228.97;5197618;28;20056;-74
2023/12/28 11:22:20;;;;;;;4.72;1.60;;;;;;;11.84;84.12;100230.09;5194621;28;20041;-75
2023/12/28 11:24:53;;;;;;;4.35;1.50;;;;;;;12.02;83.88;100232.72;5202995;28;20315;-75
2023/12/28 11:27:24;;;;;;;6.13;1.42;;;;;;;11.99;82.47;100227.59;5202703;28;20518;-75
2023/12/28 11:29:56;;;;;;;7.13;1.30;;;;;;;12.09;82.92;100238.53;5205144;28;20069;-75
2023/12/28 11:32:27;;;;;;;6.97;1.52;;;;;;;11.99;82.91;100240.69;5201300;28;20026;-75
2023/12/28 11:35:00;;;;;;;6.05;1.60;;;;;;;11.90;82.57;100238.53;5200402;28;20029;-75
2023/12/28 11:37:33;;;;;;;6.65;1.55;;;;;;;11.86;82.23;100243.97;5200628;28;20037;-75
2023/12/28 11:40:11;;;;;;;6.35;1.52;;;;;;;11.86;82.20;100242.22;5204899;28;20048;-75
2023/12/28 11:42:52;;;;;;;5.40;1.10;;;;;;;11.91;82.35;100250.69;5200385;28;20033;-73
2023/12/28 11:45:23;;;;;;;3.00;1.10;;;;;;;11.84;82.09;100238.81;5204454;28;20025;-76
2023/12/28 11:48:02;;;;;;;3.15;1.13;;;;;;;11.85;82.11;100237.91;5201491;28;20465;-75
2023/12/28 11:50:33;;;;;;;4.53;1.15;;;;;;;11.93;81.46;100242.78;5199573;28;20032;-75